Terminal Aerodrome Forecast
Issued by NWS

Home | Current Version | Previous Version | Graphics & Text | Print | Product List | Glossary On
Versions: 1 2 3 4 5 6 7 8 9 10 11 12 13 14 15 16
000
FTUS41 KCLE 231729
TAFFDY
TAF
KFDY 231729Z 2318/2418 24015G24KT P6SM OVC035
      TEMPO 2318/2321 5SM -SHRA OVC008
     FM232100 25012KT P6SM OVC025
     FM240100 30008KT P6SM BKN050
     FM240400 28010KT P6SM SCT050=

USA.gov is the U.S. government's official web portal to all federal, state and local government web resources and services.